sensor_id;sensor_type;location;lat;lon;timestamp;temperature;humidity
24560;DHT22;12727;49.934;8.656;2023-09-18T00:00:33;19.60;99.90
24560;DHT22;12727;49.934;8.656;2023-09-18T00:03:00;19.60;99.90
24560;DHT22;12727;49.934;8.656;2023-09-18T00:05:28;19.60;99.90
24560;DHT22;12727;49.934;8.656;2023-09-18T00:07:54;19.60;99.90
24560;DHT22;12727;49.934;8.656;2023-09-18T00:10:19;19.60;99.90
24560;DHT22;12727;49.934;8.656;2023-09-18T00:12:45;19.60;99.90
24560;DHT22;12727;49.934;8.656;2023-09-18T00:15:10;19.60;99.90
24560;DHT22;12727;49.934;8.656;2023-09-18T00:17:36;19.60;99.90
24560;DHT22;12727;49.934;8.656;2023-09-18T00:20:02;19.60;99.90
24560;DHT22;12727;49.934;8.656;2023-09-18T00:22:31;19.60;99.90
24560;DHT22;12727;49.934;8.656;2023-09-18T00:24:57;19.60;99.90
24560;DHT22;12727;49.934;8.656;2023-09-18T00:27:23;19.50;99.90
24560;DHT22;12727;49.934;8.656;2023-09-18T00:29:48;19.60;99.90
24560;DHT22;12727;49.934;8.656;2023-09-18T00:32:14;19.50;99.90
24560;DHT22;12727;49.934;8.656;2023-09-18T00:34:39;19.60;99.90
24560;DHT22;12727;49.934;8.656;2023-09-18T00:37:05;19.60;99.90
24560;DHT22;12727;49.934;8.656;2023-09-18T00:39:31;19.50;99.90
24560;DHT22;12727;49.934;8.656;2023-09-18T00:41:56;19.40;99.90
24560;DHT22;12727;49.934;8.656;2023-09-18T00:44:22;19.40;99.90
24560;DHT22;12727;49.934;8.656;2023-09-18T00:46:51;19.40;99.90
24560;DHT22;12727;49.934;8.656;2023-09-18T00:49:18;19.40;99.90
24560;DHT22;12727;49.934;8.656;2023-09-18T00:51:44;19.50;99.90
24560;DHT22;12727;49.934;8.656;2023-09-18T00:54:10;19.50;99.90
24560;DHT22;12727;49.934;8.656;2023-09-18T00:56:36;19.60;99.90
24560;DHT22;12727;49.934;8.656;2023-09-18T00:59:02;19.60;99.90
24560;DHT22;12727;49.934;8.656;2023-09-18T01:01:28;19.50;99.90
24560;DHT22;12727;49.934;8.656;2023-09-18T01:03:56;19.50;99.90
24560;DHT22;12727;49.934;8.656;2023-09-18T01:06:25;19.40;99.90
24560;DHT22;12727;49.934;8.656;2023-09-18T01:08:53;19.30;99.90
24560;DHT22;12727;49.934;8.656;2023-09-18T01:11:27;19.20;99.90
24560;DHT22;12727;49.934;8.656;2023-09-18T01:16:39;19.10;99.90
24560;DHT22;12727;49.934;8.656;2023-09-18T01:19:09;19.10;99.90
24560;DHT22;12727;49.934;8.656;2023-09-18T01:21:35;19.10;99.90
24560;DHT22;12727;49.934;8.656;2023-09-18T01:24:00;19.00;99.90
24560;DHT22;12727;49.934;8.656;2023-09-18T01:26:26;19.10;99.90
24560;DHT22;12727;49.934;8.656;2023-09-18T01:28:51;19.20;99.90
24560;DHT22;12727;49.934;8.656;2023-09-18T01:31:17;19.30;99.90
24560;DHT22;12727;49.934;8.656;2023-09-18T01:33:44;19.40;99.90
24560;DHT22;12727;49.934;8.656;2023-09-18T01:36:13;19.40;99.90
24560;DHT22;12727;49.934;8.656;2023-09-18T01:38:40;19.30;99.90
24560;DHT22;12727;49.934;8.656;2023-09-18T01:41:05;19.30;99.90
24560;DHT22;12727;49.934;8.656;2023-09-18T01:43:31;19.50;99.90
24560;DHT22;12727;49.934;8.656;2023-09-18T01:45:57;19.50;99.90
24560;DHT22;12727;49.934;8.656;2023-09-18T01:48:23;19.60;99.90
24560;DHT22;12727;49.934;8.656;2023-09-18T01:50:48;19.60;99.90
24560;DHT22;12727;49.934;8.656;2023-09-18T01:53:14;19.50;99.90
24560;DHT22;12727;49.934;8.656;2023-09-18T01:55:39;19.50;99.90
24560;DHT22;12727;49.934;8.656;2023-09-18T01:58:05;19.60;99.90
24560;DHT22;12727;49.934;8.656;2023-09-18T02:00:30;19.70;99.90
24560;DHT22;12727;49.934;8.656;2023-09-18T02:02:56;19.70;99.90
24560;DHT22;12727;49.934;8.656;2023-09-18T02:05:21;19.80;99.90
24560;DHT22;12727;49.934;8.656;2023-09-18T02:07:47;19.80;99.90
24560;DHT22;12727;49.934;8.656;2023-09-18T02:10:12;19.70;99.90
24560;DHT22;12727;49.934;8.656;2023-09-18T02:12:38;19.70;99.90
24560;DHT22;12727;49.934;8.656;2023-09-18T02:15:06;19.60;99.90
24560;DHT22;12727;49.934;8.656;2023-09-18T02:17:32;19.40;99.90
24560;DHT22;12727;49.934;8.656;2023-09-18T02:19:58;19.30;99.90
24560;DHT22;12727;49.934;8.656;2023-09-18T02:22:25;19.40;99.90
24560;DHT22;12727;49.934;8.656;2023-09-18T02:24:50;19.30;99.90
24560;DHT22;12727;49.934;8.656;2023-09-18T02:27:16;19.40;99.90
24560;DHT22;12727;49.934;8.656;2023-09-18T02:29:44;19.20;99.90
24560;DHT22;12727;49.934;8.656;2023-09-18T02:32:09;19.10;99.90
24560;DHT22;12727;49.934;8.656;2023-09-18T02:34:35;19.00;99.90
24560;DHT22;12727;49.934;8.656;2023-09-18T02:37:01;19.00;99.90
24560;DHT22;12727;49.934;8.656;2023-09-18T02:39:26;19.10;99.90
24560;DHT22;12727;49.934;8.656;2023-09-18T02:41:52;19.20;99.90
24560;DHT22;12727;49.934;8.656;2023-09-18T02:44:17;19.20;99.90
24560;DHT22;12727;49.934;8.656;2023-09-18T02:46:43;19.30;99.90
24560;DHT22;12727;49.934;8.656;2023-09-18T02:49:08;19.30;99.90
24560;DHT22;12727;49.934;8.656;2023-09-18T02:51:34;19.30;99.90
24560;DHT22;12727;49.934;8.656;2023-09-18T02:53:59;19.20;99.90
24560;DHT22;12727;49.934;8.656;2023-09-18T02:56:25;19.20;99.90
24560;DHT22;12727;49.934;8.656;2023-09-18T02:58:50;19.10;99.90
24560;DHT22;12727;49.934;8.656;2023-09-18T03:01:16;19.10;99.90
24560;DHT22;12727;49.934;8.656;2023-09-18T03:03:42;19.00;99.90
24560;DHT22;12727;49.934;8.656;2023-09-18T03:06:08;19.00;99.90
24560;DHT22;12727;49.934;8.656;2023-09-18T03:08:34;18.90;99.90
24560;DHT22;12727;49.934;8.656;2023-09-18T03:11:00;18.90;99.90
24560;DHT22;12727;49.934;8.656;2023-09-18T03:13:27;18.90;99.90
24560;DHT22;12727;49.934;8.656;2023-09-18T03:15:53;18.80;99.90
24560;DHT22;12727;49.934;8.656;2023-09-18T03:18:18;18.70;99.90
24560;DHT22;12727;49.934;8.656;2023-09-18T03:20:44;18.60;99.90
24560;DHT22;12727;49.934;8.656;2023-09-18T03:23:10;18.60;99.90
24560;DHT22;12727;49.934;8.656;2023-09-18T03:25:36;18.60;99.90
24560;DHT22;12727;49.934;8.656;2023-09-18T03:28:03;18.50;99.90
24560;DHT22;12727;49.934;8.656;2023-09-18T03:30:28;18.60;99.90
24560;DHT22;12727;49.934;8.656;2023-09-18T03:32:54;18.70;99.90
24560;DHT22;12727;49.934;8.656;2023-09-18T03:35:20;18.80;99.90
24560;DHT22;12727;49.934;8.656;2023-09-18T03:37:47;18.80;99.90
24560;DHT22;12727;49.934;8.656;2023-09-18T03:40:14;18.90;99.90
24560;DHT22;12727;49.934;8.656;2023-09-18T03:42:40;18.90;99.90
24560;DHT22;12727;49.934;8.656;2023-09-18T03:45:07;19.00;99.90
24560;DHT22;12727;49.934;8.656;2023-09-18T03:47:37;18.90;99.90
24560;DHT22;12727;49.934;8.656;2023-09-18T03:50:07;18.90;99.90
24560;DHT22;12727;49.934;8.656;2023-09-18T03:52:33;18.90;99.90
24560;DHT22;12727;49.934;8.656;2023-09-18T03:54:59;18.90;99.90
24560;DHT22;12727;49.934;8.656;2023-09-18T03:57:24;19.00;99.90
24560;DHT22;12727;49.934;8.656;2023-09-18T03:59:50;18.90;99.90
24560;DHT22;12727;49.934;8.656;2023-09-18T04:02:16;18.90;99.90
24560;DHT22;12727;49.934;8.656;2023-09-18T04:04:41;18.90;99.90
24560;DHT22;12727;49.934;8.656;2023-09-18T04:07:08;18.80;99.90
24560;DHT22;12727;49.934;8.656;2023-09-18T04:09:33;18.80;99.90
24560;DHT22;12727;49.934;8.656;2023-09-18T04:12:00;18.80;99.90
24560;DHT22;12727;49.934;8.656;2023-09-18T04:14:26;18.80;99.90
24560;DHT22;12727;49.934;8.656;2023-09-18T04:16:52;18.80;99.90
24560;DHT22;12727;49.934;8.656;2023-09-18T04:19:17;18.90;99.90
24560;DHT22;12727;49.934;8.656;2023-09-18T04:21:43;18.90;99.90
24560;DHT22;12727;49.934;8.656;2023-09-18T04:24:08;18.90;99.90
24560;DHT22;12727;49.934;8.656;2023-09-18T04:26:37;18.90;99.90
24560;DHT22;12727;49.934;8.656;2023-09-18T04:29:04;18.90;99.90
24560;DHT22;12727;49.934;8.656;2023-09-18T04:31:29;18.90;99.90
24560;DHT22;12727;49.934;8.656;2023-09-18T04:33:55;18.90;99.90
24560;DHT22;12727;49.934;8.656;2023-09-18T04:36:21;18.90;99.90
24560;DHT22;12727;49.934;8.656;2023-09-18T04:38:46;18.90;99.90
24560;DHT22;12727;49.934;8.656;2023-09-18T04:41:13;19.00;99.90
24560;DHT22;12727;49.934;8.656;2023-09-18T04:43:40;19.00;99.90
24560;DHT22;12727;49.934;8.656;2023-09-18T04:46:06;19.00;99.90
24560;DHT22;12727;49.934;8.656;2023-09-18T04:48:32;19.00;99.90
24560;DHT22;12727;49.934;8.656;2023-09-18T04:50:59;19.00;99.90
24560;DHT22;12727;49.934;8.656;2023-09-18T04:53:29;19.10;99.90
24560;DHT22;12727;49.934;8.656;2023-09-18T04:55:55;19.30;99.90
24560;DHT22;12727;49.934;8.656;2023-09-18T04:58:20;19.50;99.90
24560;DHT22;12727;49.934;8.656;2023-09-18T05:00:46;19.70;99.90
24560;DHT22;12727;49.934;8.656;2023-09-18T05:03:12;19.70;99.90
24560;DHT22;12727;49.934;8.656;2023-09-18T05:05:38;19.80;99.90
24560;DHT22;12727;49.934;8.656;2023-09-18T05:08:06;19.80;99.90
24560;DHT22;12727;49.934;8.656;2023-09-18T05:10:33;19.80;99.90
24560;DHT22;12727;49.934;8.656;2023-09-18T05:12:59;19.80;99.90
24560;DHT22;12727;49.934;8.656;2023-09-18T05:15:25;19.70;99.90
24560;DHT22;12727;49.934;8.656;2023-09-18T05:17:58;19.80;99.90
24560;DHT22;12727;49.934;8.656;2023-09-18T05:20:25;19.70;99.90
24560;DHT22;12727;49.934;8.656;2023-09-18T05:22:52;19.80;99.90
24560;DHT22;12727;49.934;8.656;2023-09-18T05:25:25;19.80;99.90
24560;DHT22;12727;49.934;8.656;2023-09-18T05:27:52;19.70;99.90
24560;DHT22;12727;49.934;8.656;2023-09-18T05:30:25;19.70;99.90
24560;DHT22;12727;49.934;8.656;2023-09-18T05:32:56;19.70;99.90
24560;DHT22;12727;49.934;8.656;2023-09-18T05:35:22;19.60;99.90
24560;DHT22;12727;49.934;8.656;2023-09-18T05:37:49;19.60;99.90
24560;DHT22;12727;49.934;8.656;2023-09-18T05:40:16;19.60;99.90
24560;DHT22;12727;49.934;8.656;2023-09-18T05:42:43;19.60;99.90
24560;DHT22;12727;49.934;8.656;2023-09-18T05:45:09;19.60;99.90
24560;DHT22;12727;49.934;8.656;2023-09-18T05:47:35;19.60;99.90
24560;DHT22;12727;49.934;8.656;2023-09-18T05:50:10;19.60;99.90
24560;DHT22;12727;49.934;8.656;2023-09-18T05:52:40;19.60;99.90
24560;DHT22;12727;49.934;8.656;2023-09-18T05:55:06;19.60;99.90
24560;DHT22;12727;49.934;8.656;2023-09-18T05:57:33;19.60;99.90
24560;DHT22;12727;49.934;8.656;2023-09-18T05:59:59;19.60;99.90
24560;DHT22;12727;49.934;8.656;2023-09-18T06:02:24;19.50;99.90
24560;DHT22;12727;49.934;8.656;2023-09-18T06:04:57;19.60;99.90
24560;DHT22;12727;49.934;8.656;2023-09-18T06:07:26;19.60;99.90
24560;DHT22;12727;49.934;8.656;2023-09-18T06:09:52;19.60;99.90
24560;DHT22;12727;49.934;8.656;2023-09-18T06:12:17;19.60;99.90
24560;DHT22;12727;49.934;8.656;2023-09-18T06:14:43;19.50;99.90
24560;DHT22;12727;49.934;8.656;2023-09-18T06:17:10;19.50;99.90
24560;DHT22;12727;49.934;8.656;2023-09-18T06:19:36;19.50;99.90
24560;DHT22;12727;49.934;8.656;2023-09-18T06:22:02;19.50;99.90
24560;DHT22;12727;49.934;8.656;2023-09-18T06:24:27;19.50;99.90
24560;DHT22;12727;49.934;8.656;2023-09-18T06:26:53;19.60;99.90
24560;DHT22;12727;49.934;8.656;2023-09-18T06:29:19;19.60;99.90
24560;DHT22;12727;49.934;8.656;2023-09-18T06:31:45;19.60;99.90
24560;DHT22;12727;49.934;8.656;2023-09-18T06:34:10;19.70;99.90
24560;DHT22;12727;49.934;8.656;2023-09-18T06:36:36;19.70;99.90
24560;DHT22;12727;49.934;8.656;2023-09-18T06:39:02;19.70;99.90
24560;DHT22;12727;49.934;8.656;2023-09-18T06:41:28;19.70;99.90
24560;DHT22;12727;49.934;8.656;2023-09-18T06:43:54;19.80;99.90
24560;DHT22;12727;49.934;8.656;2023-09-18T06:46:19;19.80;99.90
24560;DHT22;12727;49.934;8.656;2023-09-18T06:48:45;19.80;99.90
24560;DHT22;12727;49.934;8.656;2023-09-18T06:51:15;19.90;99.90
24560;DHT22;12727;49.934;8.656;2023-09-18T06:53:41;19.90;99.90
24560;DHT22;12727;49.934;8.656;2023-09-18T06:56:06;20.00;99.90
24560;DHT22;12727;49.934;8.656;2023-09-18T06:58:34;20.00;99.90
24560;DHT22;12727;49.934;8.656;2023-09-18T07:01:00;20.10;99.90
24560;DHT22;12727;49.934;8.656;2023-09-18T07:03:25;20.10;99.90
24560;DHT22;12727;49.934;8.656;2023-09-18T07:05:51;20.00;99.90
24560;DHT22;12727;49.934;8.656;2023-09-18T07:08:16;20.00;99.90
24560;DHT22;12727;49.934;8.656;2023-09-18T07:10:45;20.00;99.90
24560;DHT22;12727;49.934;8.656;2023-09-18T07:13:10;20.00;99.90
24560;DHT22;12727;49.934;8.656;2023-09-18T07:15:37;20.00;99.90
24560;DHT22;12727;49.934;8.656;2023-09-18T07:18:03;20.00;99.90
24560;DHT22;12727;49.934;8.656;2023-09-18T07:20:29;20.00;99.90
24560;DHT22;12727;49.934;8.656;2023-09-18T07:22:55;20.00;99.90
24560;DHT22;12727;49.934;8.656;2023-09-18T07:25:21;19.90;99.90
24560;DHT22;12727;49.934;8.656;2023-09-18T07:27:46;20.00;99.90
24560;DHT22;12727;49.934;8.656;2023-09-18T07:30:13;20.00;99.90
24560;DHT22;12727;49.934;8.656;2023-09-18T07:32:42;20.00;99.90
24560;DHT22;12727;49.934;8.656;2023-09-18T07:35:08;20.10;99.90
24560;DHT22;12727;49.934;8.656;2023-09-18T07:37:35;20.10;99.90
24560;DHT22;12727;49.934;8.656;2023-09-18T07:40:02;20.10;99.90
24560;DHT22;12727;49.934;8.656;2023-09-18T07:42:28;20.20;99.90
24560;DHT22;12727;49.934;8.656;2023-09-18T07:44:54;20.10;99.90
24560;DHT22;12727;49.934;8.656;2023-09-18T07:47:20;20.20;99.90
24560;DHT22;12727;49.934;8.656;2023-09-18T07:49:45;20.30;99.90
24560;DHT22;12727;49.934;8.656;2023-09-18T07:52:11;20.40;99.90
24560;DHT22;12727;49.934;8.656;2023-09-18T07:54:36;20.50;99.90
24560;DHT22;12727;49.934;8.656;2023-09-18T07:57:02;20.60;99.90
24560;DHT22;12727;49.934;8.656;2023-09-18T07:59:28;20.70;99.90
24560;DHT22;12727;49.934;8.656;2023-09-18T08:01:53;20.80;99.90
24560;DHT22;12727;49.934;8.656;2023-09-18T08:04:20;20.90;99.90
24560;DHT22;12727;49.934;8.656;2023-09-18T08:06:46;20.90;99.90
24560;DHT22;12727;49.934;8.656;2023-09-18T08:09:12;20.90;99.90
24560;DHT22;12727;49.934;8.656;2023-09-18T08:11:41;20.90;99.90
24560;DHT22;12727;49.934;8.656;2023-09-18T08:14:08;20.90;99.90
24560;DHT22;12727;49.934;8.656;2023-09-18T08:16:34;21.00;99.90
24560;DHT22;12727;49.934;8.656;2023-09-18T08:19:01;21.00;99.90
24560;DHT22;12727;49.934;8.656;2023-09-18T08:21:27;21.00;99.90
24560;DHT22;12727;49.934;8.656;2023-09-18T08:23:54;21.00;99.90
24560;DHT22;12727;49.934;8.656;2023-09-18T08:26:21;21.10;99.90
24560;DHT22;12727;49.934;8.656;2023-09-18T08:28:47;21.20;99.90
24560;DHT22;12727;49.934;8.656;2023-09-18T08:31:12;21.20;99.90
24560;DHT22;12727;49.934;8.656;2023-09-18T08:33:39;21.30;99.90
24560;DHT22;12727;49.934;8.656;2023-09-18T08:36:05;21.30;99.90
24560;DHT22;12727;49.934;8.656;2023-09-18T08:38:31;21.40;99.90
24560;DHT22;12727;49.934;8.656;2023-09-18T08:40:57;21.40;99.90
24560;DHT22;12727;49.934;8.656;2023-09-18T08:43:24;21.40;99.90
24560;DHT22;12727;49.934;8.656;2023-09-18T08:45:52;21.50;99.90
24560;DHT22;12727;49.934;8.656;2023-09-18T08:48:19;21.60;99.90
24560;DHT22;12727;49.934;8.656;2023-09-18T08:50:45;21.60;99.90
24560;DHT22;12727;49.934;8.656;2023-09-18T08:53:12;21.60;99.90
24560;DHT22;12727;49.934;8.656;2023-09-18T08:55:38;21.60;99.90
24560;DHT22;12727;49.934;8.656;2023-09-18T08:58:05;21.60;99.90
24560;DHT22;12727;49.934;8.656;2023-09-18T09:00:31;21.60;99.90
24560;DHT22;12727;49.934;8.656;2023-09-18T09:02:56;21.50;99.90
24560;DHT22;12727;49.934;8.656;2023-09-18T09:05:22;21.60;99.90
24560;DHT22;12727;49.934;8.656;2023-09-18T09:07:49;21.60;99.90
24560;DHT22;12727;49.934;8.656;2023-09-18T09:10:15;21.60;99.90
24560;DHT22;12727;49.934;8.656;2023-09-18T09:12:53;21.50;99.90
24560;DHT22;12727;49.934;8.656;2023-09-18T09:15:20;21.60;99.90
24560;DHT22;12727;49.934;8.656;2023-09-18T09:17:46;21.60;99.90
24560;DHT22;12727;49.934;8.656;2023-09-18T09:20:13;21.50;99.90
24560;DHT22;12727;49.934;8.656;2023-09-18T09:22:40;21.50;99.90
24560;DHT22;12727;49.934;8.656;2023-09-18T09:27:47;21.50;99.90
24560;DHT22;12727;49.934;8.656;2023-09-18T09:30:25;21.50;99.90
24560;DHT22;12727;49.934;8.656;2023-09-18T09:32:53;21.50;99.90
24560;DHT22;12727;49.934;8.656;2023-09-18T09:35:24;21.60;99.90
24560;DHT22;12727;49.934;8.656;2023-09-18T09:40:47;21.60;99.90
24560;DHT22;12727;49.934;8.656;2023-09-18T09:43:13;21.50;99.90
24560;DHT22;12727;49.934;8.656;2023-09-18T09:45:41;21.50;99.90
24560;DHT22;12727;49.934;8.656;2023-09-18T09:48:08;21.50;99.90
24560;DHT22;12727;49.934;8.656;2023-09-18T09:50:47;21.50;99.90
24560;DHT22;12727;49.934;8.656;2023-09-18T09:53:14;21.50;99.90
24560;DHT22;12727;49.934;8.656;2023-09-18T09:55:40;21.50;99.90
24560;DHT22;12727;49.934;8.656;2023-09-18T09:58:07;21.50;99.90
24560;DHT22;12727;49.934;8.656;2023-09-18T10:03:17;21.60;99.90
24560;DHT22;12727;49.934;8.656;2023-09-18T10:05:48;21.70;99.90
24560;DHT22;12727;49.934;8.656;2023-09-18T10:08:25;21.80;99.90
24560;DHT22;12727;49.934;8.656;2023-09-18T10:11:11;21.80;99.90
24560;DHT22;12727;49.934;8.656;2023-09-18T10:13:46;21.80;99.90
24560;DHT22;12727;49.934;8.656;2023-09-18T10:16:14;21.80;99.90
24560;DHT22;12727;49.934;8.656;2023-09-18T10:18:56;21.70;99.90
24560;DHT22;12727;49.934;8.656;2023-09-18T10:21:37;21.70;99.90
24560;DHT22;12727;49.934;8.656;2023-09-18T10:24:23;21.60;99.90
24560;DHT22;12727;49.934;8.656;2023-09-18T10:26:57;21.60;99.90
24560;DHT22;12727;49.934;8.656;2023-09-18T10:29:24;21.60;99.90
24560;DHT22;12727;49.934;8.656;2023-09-18T10:31:51;21.70;99.90
24560;DHT22;12727;49.934;8.656;2023-09-18T10:34:18;21.80;99.90
24560;DHT22;12727;49.934;8.656;2023-09-18T10:36:46;21.90;99.90
24560;DHT22;12727;49.934;8.656;2023-09-18T10:39:12;22.10;99.90
24560;DHT22;12727;49.934;8.656;2023-09-18T10:41:38;22.20;99.90
24560;DHT22;12727;49.934;8.656;2023-09-18T10:44:05;22.20;99.90
24560;DHT22;12727;49.934;8.656;2023-09-18T10:46:31;22.30;99.90
24560;DHT22;12727;49.934;8.656;2023-09-18T10:49:01;22.30;99.90
24560;DHT22;12727;49.934;8.656;2023-09-18T10:51:29;22.40;99.90
24560;DHT22;12727;49.934;8.656;2023-09-18T10:53:57;22.40;99.90
24560;DHT22;12727;49.934;8.656;2023-09-18T10:56:23;22.40;99.90
24560;DHT22;12727;49.934;8.656;2023-09-18T10:58:59;22.50;99.90
24560;DHT22;12727;49.934;8.656;2023-09-18T11:01:27;22.50;99.90
24560;DHT22;12727;49.934;8.656;2023-09-18T11:03:53;22.50;99.90
24560;DHT22;12727;49.934;8.656;2023-09-18T11:06:22;22.50;99.90
24560;DHT22;12727;49.934;8.656;2023-09-18T11:09:01;22.50;99.90
24560;DHT22;12727;49.934;8.656;2023-09-18T11:11:30;22.50;99.90
24560;DHT22;12727;49.934;8.656;2023-09-18T11:13:58;22.60;99.90
24560;DHT22;12727;49.934;8.656;2023-09-18T11:21:27;22.70;99.90
24560;DHT22;12727;49.934;8.656;2023-09-18T11:26:34;22.80;99.90
24560;DHT22;12727;49.934;8.656;2023-09-18T11:29:01;22.80;99.90
24560;DHT22;12727;49.934;8.656;2023-09-18T11:36:48;22.90;99.90
24560;DHT22;12727;49.934;8.656;2023-09-18T11:39:38;23.00;99.90
24560;DHT22;12727;49.934;8.656;2023-09-18T11:42:12;23.10;99.90
24560;DHT22;12727;49.934;8.656;2023-09-18T11:44:39;23.20;99.90
24560;DHT22;12727;49.934;8.656;2023-09-18T11:47:12;23.30;99.90
24560;DHT22;12727;49.934;8.656;2023-09-18T11:49:46;23.10;99.90
24560;DHT22;12727;49.934;8.656;2023-09-18T11:52:16;23.10;99.90
24560;DHT22;12727;49.934;8.656;2023-09-18T11:54:42;23.10;99.90
24560;DHT22;12727;49.934;8.656;2023-09-18T11:57:08;23.00;99.90
24560;DHT22;12727;49.934;8.656;2023-09-18T11:59:40;23.00;99.90
24560;DHT22;12727;49.934;8.656;2023-09-18T12:02:33;23.10;99.90
24560;DHT22;12727;49.934;8.656;2023-09-18T12:05:17;23.20;99.90
24560;DHT22;12727;49.934;8.656;2023-09-18T12:07:45;23.40;99.90
24560;DHT22;12727;49.934;8.656;2023-09-18T12:10:15;23.70;99.90
24560;DHT22;12727;49.934;8.656;2023-09-18T12:12:43;23.80;99.90
24560;DHT22;12727;49.934;8.656;2023-09-18T12:15:12;23.90;99.90
24560;DHT22;12727;49.934;8.656;2023-09-18T12:17:37;24.10;99.90
24560;DHT22;12727;49.934;8.656;2023-09-18T12:20:03;24.20;99.90
24560;DHT22;12727;49.934;8.656;2023-09-18T12:22:32;24.10;99.90
24560;DHT22;12727;49.934;8.656;2023-09-18T12:25:14;23.90;99.90
24560;DHT22;12727;49.934;8.656;2023-09-18T12:27:43;23.60;99.90
24560;DHT22;12727;49.934;8.656;2023-09-18T12:30:09;23.50;99.90
24560;DHT22;12727;49.934;8.656;2023-09-18T12:32:37;23.50;99.90
24560;DHT22;12727;49.934;8.656;2023-09-18T12:35:03;23.50;99.90
24560;DHT22;12727;49.934;8.656;2023-09-18T12:37:35;23.40;99.90
24560;DHT22;12727;49.934;8.656;2023-09-18T12:40:04;23.50;99.90
24560;DHT22;12727;49.934;8.656;2023-09-18T12:42:36;23.60;99.90
24560;DHT22;12727;49.934;8.656;2023-09-18T12:45:06;24.00;99.90
24560;DHT22;12727;49.934;8.656;2023-09-18T12:47:32;24.20;99.90
24560;DHT22;12727;49.934;8.656;2023-09-18T12:50:05;24.10;99.90
24560;DHT22;12727;49.934;8.656;2023-09-18T12:52:32;24.00;99.90
24560;DHT22;12727;49.934;8.656;2023-09-18T12:54:58;23.90;99.90
24560;DHT22;12727;49.934;8.656;2023-09-18T12:57:25;24.00;99.90
24560;DHT22;12727;49.934;8.656;2023-09-18T12:59:51;24.00;99.90
24560;DHT22;12727;49.934;8.656;2023-09-18T13:02:19;24.10;99.90
24560;DHT22;12727;49.934;8.656;2023-09-18T13:04:52;24.40;99.90
24560;DHT22;12727;49.934;8.656;2023-09-18T13:07:18;24.50;99.90
24560;DHT22;12727;49.934;8.656;2023-09-18T13:09:58;24.40;99.90
24560;DHT22;12727;49.934;8.656;2023-09-18T13:12:25;24.30;99.90
24560;DHT22;12727;49.934;8.656;2023-09-18T13:15:03;24.20;99.90
24560;DHT22;12727;49.934;8.656;2023-09-18T13:20:12;24.20;99.90
24560;DHT22;12727;49.934;8.656;2023-09-18T13:22:39;24.30;99.90
24560;DHT22;12727;49.934;8.656;2023-09-18T13:25:07;24.30;99.90
24560;DHT22;12727;49.934;8.656;2023-09-18T13:27:33;24.40;99.90
24560;DHT22;12727;49.934;8.656;2023-09-18T13:29:58;24.50;99.90
24560;DHT22;12727;49.934;8.656;2023-09-18T13:32:35;24.70;99.90
24560;DHT22;12727;49.934;8.656;2023-09-18T13:35:02;24.70;99.90
24560;DHT22;12727;49.934;8.656;2023-09-18T13:37:30;24.60;99.90
24560;DHT22;12727;49.934;8.656;2023-09-18T13:39:56;24.40;99.90
24560;DHT22;12727;49.934;8.656;2023-09-18T13:42:22;24.30;99.90
24560;DHT22;12727;49.934;8.656;2023-09-18T13:44:47;24.20;99.90
24560;DHT22;12727;49.934;8.656;2023-09-18T13:47:14;24.10;99.90
24560;DHT22;12727;49.934;8.656;2023-09-18T13:49:40;24.10;99.90
24560;DHT22;12727;49.934;8.656;2023-09-18T13:52:06;24.10;99.90
24560;DHT22;12727;49.934;8.656;2023-09-18T13:54:31;24.20;99.90
24560;DHT22;12727;49.934;8.656;2023-09-18T13:56:57;24.20;99.90
24560;DHT22;12727;49.934;8.656;2023-09-18T13:59:23;24.10;99.90
24560;DHT22;12727;49.934;8.656;2023-09-18T14:01:48;24.00;99.90
24560;DHT22;12727;49.934;8.656;2023-09-18T14:04:14;23.80;99.90
24560;DHT22;12727;49.934;8.656;2023-09-18T14:06:40;23.80;99.90
24560;DHT22;12727;49.934;8.656;2023-09-18T14:09:07;23.80;99.90
24560;DHT22;12727;49.934;8.656;2023-09-18T14:11:35;23.90;99.90
24560;DHT22;12727;49.934;8.656;2023-09-18T14:14:03;24.00;99.90
24560;DHT22;12727;49.934;8.656;2023-09-18T14:16:29;24.20;99.90
24560;DHT22;12727;49.934;8.656;2023-09-18T14:18:58;24.30;99.90
24560;DHT22;12727;49.934;8.656;2023-09-18T14:21:24;24.20;99.90
24560;DHT22;12727;49.934;8.656;2023-09-18T14:23:50;24.10;99.90
24560;DHT22;12727;49.934;8.656;2023-09-18T14:26:15;24.10;99.90
24560;DHT22;12727;49.934;8.656;2023-09-18T14:28:42;24.10;99.90
24560;DHT22;12727;49.934;8.656;2023-09-18T14:31:10;24.00;99.90
24560;DHT22;12727;49.934;8.656;2023-09-18T14:33:35;24.10;99.90
24560;DHT22;12727;49.934;8.656;2023-09-18T14:36:01;24.10;99.90
24560;DHT22;12727;49.934;8.656;2023-09-18T14:38:29;24.20;99.90
24560;DHT22;12727;49.934;8.656;2023-09-18T14:40:54;24.20;99.90
24560;DHT22;12727;49.934;8.656;2023-09-18T14:43:26;24.20;99.90
24560;DHT22;12727;49.934;8.656;2023-09-18T14:45:52;24.20;99.90
24560;DHT22;12727;49.934;8.656;2023-09-18T14:48:18;24.30;99.90
24560;DHT22;12727;49.934;8.656;2023-09-18T14:50:44;24.20;99.90
24560;DHT22;12727;49.934;8.656;2023-09-18T14:53:11;24.10;99.90
24560;DHT22;12727;49.934;8.656;2023-09-18T14:55:37;24.00;99.90
24560;DHT22;12727;49.934;8.656;2023-09-18T14:58:03;24.00;99.90
24560;DHT22;12727;49.934;8.656;2023-09-18T15:00:28;23.90;99.90
24560;DHT22;12727;49.934;8.656;2023-09-18T15:02:54;23.90;99.90
24560;DHT22;12727;49.934;8.656;2023-09-18T15:05:20;23.80;99.90
24560;DHT22;12727;49.934;8.656;2023-09-18T15:07:45;23.70;99.90
24560;DHT22;12727;49.934;8.656;2023-09-18T15:10:11;23.50;99.90
24560;DHT22;12727;49.934;8.656;2023-09-18T15:12:36;23.60;99.90
24560;DHT22;12727;49.934;8.656;2023-09-18T15:15:02;23.60;99.90
24560;DHT22;12727;49.934;8.656;2023-09-18T15:17:28;23.70;99.90
24560;DHT22;12727;49.934;8.656;2023-09-18T15:19:54;23.70;99.90
24560;DHT22;12727;49.934;8.656;2023-09-18T15:22:21;23.60;99.90
24560;DHT22;12727;49.934;8.656;2023-09-18T15:24:47;23.50;99.90
24560;DHT22;12727;49.934;8.656;2023-09-18T15:27:13;23.50;99.90
24560;DHT22;12727;49.934;8.656;2023-09-18T15:29:38;23.40;99.90
24560;DHT22;12727;49.934;8.656;2023-09-18T15:32:04;23.30;99.90
24560;DHT22;12727;49.934;8.656;2023-09-18T15:34:30;23.30;99.90
24560;DHT22;12727;49.934;8.656;2023-09-18T15:36:55;23.20;99.90
24560;DHT22;12727;49.934;8.656;2023-09-18T15:39:21;23.20;99.90
24560;DHT22;12727;49.934;8.656;2023-09-18T15:41:47;23.20;99.90
24560;DHT22;12727;49.934;8.656;2023-09-18T15:44:13;23.10;99.90
24560;DHT22;12727;49.934;8.656;2023-09-18T15:46:39;23.00;99.90
24560;DHT22;12727;49.934;8.656;2023-09-18T15:49:05;23.10;99.90
24560;DHT22;12727;49.934;8.656;2023-09-18T15:51:32;23.10;99.90
24560;DHT22;12727;49.934;8.656;2023-09-18T15:53:58;23.10;99.90
24560;DHT22;12727;49.934;8.656;2023-09-18T15:56:23;23.20;99.90